sensor_id;sensor_type;location;lat;lon;timestamp;P1;durP1;ratioP1;P2;durP2;ratioP2
11488;SDS011;5801;50.804;12.638;2024-01-15T00:00:48;7.55;;;3.30;;
11488;SDS011;5801;50.804;12.638;2024-01-15T00:03:14;11.85;;;4.38;;
11488;SDS011;5801;50.804;12.638;2024-01-15T00:05:40;8.00;;;4.20;;
11488;SDS011;5801;50.804;12.638;2024-01-15T00:08:06;8.27;;;4.68;;
11488;SDS011;5801;50.804;12.638;2024-01-15T00:10:32;11.48;;;4.93;;
11488;SDS011;5801;50.804;12.638;2024-01-15T00:12:58;7.97;;;4.03;;
11488;SDS011;5801;50.804;12.638;2024-01-15T00:15:24;9.98;;;3.75;;
11488;SDS011;5801;50.804;12.638;2024-01-15T00:17:53;8.00;;;4.07;;
11488;SDS011;5801;50.804;12.638;2024-01-15T00:20:19;6.00;;;3.67;;
11488;SDS011;5801;50.804;12.638;2024-01-15T00:22:45;11.43;;;4.55;;
11488;SDS011;5801;50.804;12.638;2024-01-15T00:25:11;10.00;;;4.10;;
11488;SDS011;5801;50.804;12.638;2024-01-15T00:27:37;10.25;;;4.00;;
11488;SDS011;5801;50.804;12.638;2024-01-15T00:30:03;6.82;;;3.72;;
11488;SDS011;5801;50.804;12.638;2024-01-15T00:32:30;7.53;;;4.45;;
11488;SDS011;5801;50.804;12.638;2024-01-15T00:34:56;9.90;;;5.55;;
11488;SDS011;5801;50.804;12.638;2024-01-15T00:37:22;11.25;;;5.20;;
11488;SDS011;5801;50.804;12.638;2024-01-15T00:39:48;10.43;;;5.70;;
11488;SDS011;5801;50.804;12.638;2024-01-15T00:42:14;4.80;;;3.08;;
11488;SDS011;5801;50.804;12.638;2024-01-15T00:44:41;6.28;;;3.15;;
11488;SDS011;5801;50.804;12.638;2024-01-15T00:47:07;14.60;;;5.50;;
11488;SDS011;5801;50.804;12.638;2024-01-15T00:49:34;6.90;;;4.40;;
11488;SDS011;5801;50.804;12.638;2024-01-15T00:52:00;8.90;;;3.85;;
11488;SDS011;5801;50.804;12.638;2024-01-15T00:54:26;5.95;;;4.25;;
11488;SDS011;5801;50.804;12.638;2024-01-15T00:56:52;7.30;;;4.40;;
11488;SDS011;5801;50.804;12.638;2024-01-15T00:59:19;9.60;;;4.68;;
11488;SDS011;5801;50.804;12.638;2024-01-15T01:01:46;8.00;;;5.03;;
11488;SDS011;5801;50.804;12.638;2024-01-15T01:04:12;7.82;;;4.13;;
11488;SDS011;5801;50.804;12.638;2024-01-15T01:06:38;10.52;;;3.92;;
11488;SDS011;5801;50.804;12.638;2024-01-15T01:09:04;11.18;;;4.50;;
11488;SDS011;5801;50.804;12.638;2024-01-15T01:11:30;10.35;;;4.00;;
11488;SDS011;5801;50.804;12.638;2024-01-15T01:13:56;11.25;;;4.93;;
11488;SDS011;5801;50.804;12.638;2024-01-15T01:16:22;9.52;;;5.18;;
11488;SDS011;5801;50.804;12.638;2024-01-15T01:18:49;13.18;;;5.03;;
11488;SDS011;5801;50.804;12.638;2024-01-15T01:21:15;21.77;;;4.95;;
11488;SDS011;5801;50.804;12.638;2024-01-15T01:23:41;7.38;;;4.53;;
11488;SDS011;5801;50.804;12.638;2024-01-15T01:26:07;11.48;;;5.20;;
11488;SDS011;5801;50.804;12.638;2024-01-15T01:28:33;10.13;;;5.20;;
11488;SDS011;5801;50.804;12.638;2024-01-15T01:30:59;14.13;;;5.70;;
11488;SDS011;5801;50.804;12.638;2024-01-15T01:33:25;12.18;;;5.25;;
11488;SDS011;5801;50.804;12.638;2024-01-15T01:35:52;15.15;;;5.25;;
11488;SDS011;5801;50.804;12.638;2024-01-15T01:38:18;14.63;;;5.63;;
11488;SDS011;5801;50.804;12.638;2024-01-15T01:40:44;8.82;;;4.65;;
11488;SDS011;5801;50.804;12.638;2024-01-15T01:43:10;14.10;;;6.25;;
11488;SDS011;5801;50.804;12.638;2024-01-15T01:45:37;8.30;;;4.80;;
11488;SDS011;5801;50.804;12.638;2024-01-15T01:48:03;15.68;;;6.85;;
11488;SDS011;5801;50.804;12.638;2024-01-15T01:50:30;9.60;;;5.40;;
11488;SDS011;5801;50.804;12.638;2024-01-15T01:52:56;8.23;;;4.68;;
11488;SDS011;5801;50.804;12.638;2024-01-15T01:55:24;10.68;;;4.82;;
11488;SDS011;5801;50.804;12.638;2024-01-15T01:57:51;6.90;;;3.65;;
11488;SDS011;5801;50.804;12.638;2024-01-15T02:00:17;12.73;;;7.22;;
11488;SDS011;5801;50.804;12.638;2024-01-15T02:02:43;14.50;;;6.75;;
11488;SDS011;5801;50.804;12.638;2024-01-15T02:05:09;17.45;;;6.60;;
11488;SDS011;5801;50.804;12.638;2024-01-15T02:07:35;16.05;;;7.13;;
11488;SDS011;5801;50.804;12.638;2024-01-15T02:10:01;13.38;;;3.92;;
11488;SDS011;5801;50.804;12.638;2024-01-15T02:12:28;11.95;;;5.80;;
11488;SDS011;5801;50.804;12.638;2024-01-15T02:14:54;11.60;;;5.63;;
11488;SDS011;5801;50.804;12.638;2024-01-15T02:17:20;21.38;;;7.32;;
11488;SDS011;5801;50.804;12.638;2024-01-15T02:19:46;16.58;;;7.63;;
11488;SDS011;5801;50.804;12.638;2024-01-15T02:22:12;7.40;;;3.90;;
11488;SDS011;5801;50.804;12.638;2024-01-15T02:24:38;14.48;;;6.25;;
11488;SDS011;5801;50.804;12.638;2024-01-15T02:27:05;9.85;;;4.53;;
11488;SDS011;5801;50.804;12.638;2024-01-15T02:29:31;11.00;;;5.15;;
11488;SDS011;5801;50.804;12.638;2024-01-15T02:31:57;16.15;;;5.90;;
11488;SDS011;5801;50.804;12.638;2024-01-15T02:34:23;9.15;;;5.38;;
11488;SDS011;5801;50.804;12.638;2024-01-15T02:36:49;15.40;;;5.13;;
11488;SDS011;5801;50.804;12.638;2024-01-15T02:39:15;11.32;;;6.15;;
11488;SDS011;5801;50.804;12.638;2024-01-15T02:41:41;10.18;;;4.47;;
11488;SDS011;5801;50.804;12.638;2024-01-15T02:44:07;10.82;;;5.43;;
11488;SDS011;5801;50.804;12.638;2024-01-15T02:46:33;8.65;;;5.60;;
11488;SDS011;5801;50.804;12.638;2024-01-15T02:48:59;8.50;;;4.55;;
11488;SDS011;5801;50.804;12.638;2024-01-15T02:51:25;16.05;;;5.50;;
11488;SDS011;5801;50.804;12.638;2024-01-15T02:53:51;11.73;;;5.35;;
11488;SDS011;5801;50.804;12.638;2024-01-15T02:56:17;9.07;;;4.55;;
11488;SDS011;5801;50.804;12.638;2024-01-15T02:58:43;11.32;;;5.95;;
11488;SDS011;5801;50.804;12.638;2024-01-15T03:01:09;12.25;;;5.95;;
11488;SDS011;5801;50.804;12.638;2024-01-15T03:03:36;8.80;;;4.80;;
11488;SDS011;5801;50.804;12.638;2024-01-15T03:06:02;14.48;;;5.38;;
11488;SDS011;5801;50.804;12.638;2024-01-15T03:08:28;11.38;;;5.90;;
11488;SDS011;5801;50.804;12.638;2024-01-15T03:10:54;7.65;;;4.22;;
11488;SDS011;5801;50.804;12.638;2024-01-15T03:13:20;10.60;;;5.20;;
11488;SDS011;5801;50.804;12.638;2024-01-15T03:15:46;7.32;;;4.13;;
11488;SDS011;5801;50.804;12.638;2024-01-15T03:18:12;13.88;;;5.82;;
11488;SDS011;5801;50.804;12.638;2024-01-15T03:20:38;15.27;;;7.30;;
11488;SDS011;5801;50.804;12.638;2024-01-15T03:23:04;9.73;;;5.20;;
11488;SDS011;5801;50.804;12.638;2024-01-15T03:25:29;9.75;;;5.07;;
11488;SDS011;5801;50.804;12.638;2024-01-15T03:27:56;16.10;;;5.45;;
11488;SDS011;5801;50.804;12.638;2024-01-15T03:30:22;8.50;;;6.30;;
11488;SDS011;5801;50.804;12.638;2024-01-15T03:32:48;11.38;;;5.18;;
11488;SDS011;5801;50.804;12.638;2024-01-15T03:35:15;14.57;;;7.40;;
11488;SDS011;5801;50.804;12.638;2024-01-15T03:37:41;7.93;;;4.28;;
11488;SDS011;5801;50.804;12.638;2024-01-15T03:40:07;12.50;;;6.30;;
11488;SDS011;5801;50.804;12.638;2024-01-15T03:42:34;14.18;;;5.38;;
11488;SDS011;5801;50.804;12.638;2024-01-15T03:45:00;15.82;;;7.35;;
11488;SDS011;5801;50.804;12.638;2024-01-15T03:47:26;12.98;;;4.80;;
11488;SDS011;5801;50.804;12.638;2024-01-15T03:49:52;9.85;;;5.60;;
11488;SDS011;5801;50.804;12.638;2024-01-15T03:52:18;8.10;;;5.50;;
11488;SDS011;5801;50.804;12.638;2024-01-15T03:54:44;8.48;;;5.22;;
11488;SDS011;5801;50.804;12.638;2024-01-15T03:57:10;18.15;;;6.47;;
11488;SDS011;5801;50.804;12.638;2024-01-15T03:59:36;8.70;;;4.10;;
11488;SDS011;5801;50.804;12.638;2024-01-15T04:02:02;13.15;;;5.15;;
11488;SDS011;5801;50.804;12.638;2024-01-15T04:04:29;4.82;;;2.75;;
11488;SDS011;5801;50.804;12.638;2024-01-15T04:06:55;11.82;;;6.25;;
11488;SDS011;5801;50.804;12.638;2024-01-15T04:09:21;8.50;;;4.35;;
11488;SDS011;5801;50.804;12.638;2024-01-15T04:11:47;14.02;;;5.90;;
11488;SDS011;5801;50.804;12.638;2024-01-15T04:14:13;9.45;;;5.03;;
11488;SDS011;5801;50.804;12.638;2024-01-15T04:16:39;10.88;;;5.20;;
11488;SDS011;5801;50.804;12.638;2024-01-15T04:19:05;9.32;;;4.60;;
11488;SDS011;5801;50.804;12.638;2024-01-15T04:21:31;15.30;;;6.28;;
11488;SDS011;5801;50.804;12.638;2024-01-15T04:23:57;13.77;;;5.90;;
11488;SDS011;5801;50.804;12.638;2024-01-15T04:26:23;14.88;;;5.20;;
11488;SDS011;5801;50.804;12.638;2024-01-15T04:28:49;13.13;;;5.90;;
11488;SDS011;5801;50.804;12.638;2024-01-15T04:31:22;12.77;;;7.00;;
11488;SDS011;5801;50.804;12.638;2024-01-15T04:33:49;12.57;;;5.13;;
11488;SDS011;5801;50.804;12.638;2024-01-15T04:36:15;9.70;;;4.40;;
11488;SDS011;5801;50.804;12.638;2024-01-15T04:38:41;11.20;;;6.28;;
11488;SDS011;5801;50.804;12.638;2024-01-15T04:41:11;15.43;;;6.85;;
11488;SDS011;5801;50.804;12.638;2024-01-15T04:43:38;13.93;;;6.82;;
11488;SDS011;5801;50.804;12.638;2024-01-15T04:46:05;10.30;;;5.00;;
11488;SDS011;5801;50.804;12.638;2024-01-15T04:48:32;14.90;;;6.07;;
11488;SDS011;5801;50.804;12.638;2024-01-15T04:50:58;8.43;;;3.33;;
11488;SDS011;5801;50.804;12.638;2024-01-15T04:53:25;13.60;;;5.97;;
11488;SDS011;5801;50.804;12.638;2024-01-15T04:55:51;7.93;;;4.60;;
11488;SDS011;5801;50.804;12.638;2024-01-15T04:58:16;9.68;;;3.33;;
11488;SDS011;5801;50.804;12.638;2024-01-15T05:00:42;11.43;;;4.85;;
11488;SDS011;5801;50.804;12.638;2024-01-15T05:03:08;11.05;;;4.82;;
11488;SDS011;5801;50.804;12.638;2024-01-15T05:05:34;13.80;;;4.55;;
11488;SDS011;5801;50.804;12.638;2024-01-15T05:08:00;16.58;;;4.82;;
11488;SDS011;5801;50.804;12.638;2024-01-15T05:10:26;11.98;;;5.85;;
11488;SDS011;5801;50.804;12.638;2024-01-15T05:12:53;6.72;;;2.63;;
11488;SDS011;5801;50.804;12.638;2024-01-15T05:15:19;11.70;;;4.05;;
11488;SDS011;5801;50.804;12.638;2024-01-15T05:17:45;10.55;;;4.90;;
11488;SDS011;5801;50.804;12.638;2024-01-15T05:20:11;6.78;;;3.60;;
11488;SDS011;5801;50.804;12.638;2024-01-15T05:22:37;18.33;;;4.88;;
11488;SDS011;5801;50.804;12.638;2024-01-15T05:25:03;15.93;;;4.53;;
11488;SDS011;5801;50.804;12.638;2024-01-15T05:27:29;8.20;;;4.13;;
11488;SDS011;5801;50.804;12.638;2024-01-15T05:29:55;8.93;;;4.15;;
11488;SDS011;5801;50.804;12.638;2024-01-15T05:32:21;9.30;;;4.95;;
11488;SDS011;5801;50.804;12.638;2024-01-15T05:34:47;6.97;;;4.22;;
11488;SDS011;5801;50.804;12.638;2024-01-15T05:37:13;12.50;;;3.92;;
11488;SDS011;5801;50.804;12.638;2024-01-15T05:39:39;11.00;;;4.45;;
11488;SDS011;5801;50.804;12.638;2024-01-15T05:42:05;10.20;;;3.67;;
11488;SDS011;5801;50.804;12.638;2024-01-15T05:44:31;9.25;;;3.53;;
11488;SDS011;5801;50.804;12.638;2024-01-15T05:46:57;9.95;;;4.13;;
11488;SDS011;5801;50.804;12.638;2024-01-15T05:49:23;7.03;;;3.55;;
11488;SDS011;5801;50.804;12.638;2024-01-15T05:51:49;8.23;;;4.13;;
11488;SDS011;5801;50.804;12.638;2024-01-15T05:54:16;11.05;;;3.47;;
11488;SDS011;5801;50.804;12.638;2024-01-15T05:56:43;18.10;;;5.18;;
11488;SDS011;5801;50.804;12.638;2024-01-15T05:59:09;11.35;;;3.35;;
11488;SDS011;5801;50.804;12.638;2024-01-15T06:01:35;9.13;;;3.17;;
11488;SDS011;5801;50.804;12.638;2024-01-15T06:04:01;8.20;;;4.53;;
11488;SDS011;5801;50.804;12.638;2024-01-15T06:06:27;6.38;;;3.50;;
11488;SDS011;5801;50.804;12.638;2024-01-15T06:08:53;8.82;;;3.17;;
11488;SDS011;5801;50.804;12.638;2024-01-15T06:11:19;4.82;;;2.92;;
11488;SDS011;5801;50.804;12.638;2024-01-15T06:13:45;10.65;;;4.35;;
11488;SDS011;5801;50.804;12.638;2024-01-15T06:16:13;7.93;;;4.60;;
11488;SDS011;5801;50.804;12.638;2024-01-15T06:18:40;13.93;;;6.60;;
11488;SDS011;5801;50.804;12.638;2024-01-15T06:21:06;11.13;;;4.90;;
11488;SDS011;5801;50.804;12.638;2024-01-15T06:23:32;11.10;;;5.22;;
11488;SDS011;5801;50.804;12.638;2024-01-15T06:25:58;9.18;;;4.45;;
11488;SDS011;5801;50.804;12.638;2024-01-15T06:28:24;13.52;;;5.43;;
11488;SDS011;5801;50.804;12.638;2024-01-15T06:30:51;9.00;;;4.65;;
11488;SDS011;5801;50.804;12.638;2024-01-15T06:33:17;9.45;;;5.00;;
11488;SDS011;5801;50.804;12.638;2024-01-15T06:35:43;6.45;;;3.13;;
11488;SDS011;5801;50.804;12.638;2024-01-15T06:38:09;9.90;;;4.28;;
11488;SDS011;5801;50.804;12.638;2024-01-15T06:40:35;10.13;;;4.93;;
11488;SDS011;5801;50.804;12.638;2024-01-15T06:43:01;10.57;;;5.88;;
11488;SDS011;5801;50.804;12.638;2024-01-15T06:45:27;11.57;;;4.53;;
11488;SDS011;5801;50.804;12.638;2024-01-15T06:47:53;8.50;;;4.90;;
11488;SDS011;5801;50.804;12.638;2024-01-15T06:50:19;9.75;;;4.45;;
11488;SDS011;5801;50.804;12.638;2024-01-15T06:52:45;12.57;;;4.38;;
11488;SDS011;5801;50.804;12.638;2024-01-15T06:55:11;11.20;;;5.20;;
11488;SDS011;5801;50.804;12.638;2024-01-15T06:57:37;11.40;;;5.70;;
11488;SDS011;5801;50.804;12.638;2024-01-15T07:00:03;8.05;;;4.03;;
11488;SDS011;5801;50.804;12.638;2024-01-15T07:02:32;14.85;;;5.10;;
11488;SDS011;5801;50.804;12.638;2024-01-15T07:04:58;11.00;;;5.28;;
11488;SDS011;5801;50.804;12.638;2024-01-15T07:07:24;14.85;;;3.97;;
11488;SDS011;5801;50.804;12.638;2024-01-15T07:09:54;7.40;;;4.30;;
11488;SDS011;5801;50.804;12.638;2024-01-15T07:12:20;11.35;;;5.10;;
11488;SDS011;5801;50.804;12.638;2024-01-15T07:14:45;9.32;;;3.80;;
11488;SDS011;5801;50.804;12.638;2024-01-15T07:17:12;11.50;;;4.70;;
11488;SDS011;5801;50.804;12.638;2024-01-15T07:19:38;6.28;;;4.15;;
11488;SDS011;5801;50.804;12.638;2024-01-15T07:22:03;10.95;;;4.95;;
11488;SDS011;5801;50.804;12.638;2024-01-15T07:24:29;11.18;;;4.90;;
11488;SDS011;5801;50.804;12.638;2024-01-15T07:26:55;14.55;;;5.22;;
11488;SDS011;5801;50.804;12.638;2024-01-15T07:29:21;11.73;;;5.57;;
11488;SDS011;5801;50.804;12.638;2024-01-15T07:31:49;9.82;;;4.22;;
11488;SDS011;5801;50.804;12.638;2024-01-15T07:34:15;8.40;;;2.70;;
11488;SDS011;5801;50.804;12.638;2024-01-15T07:36:43;12.32;;;4.10;;
11488;SDS011;5801;50.804;12.638;2024-01-15T07:39:10;11.90;;;4.45;;
11488;SDS011;5801;50.804;12.638;2024-01-15T07:41:36;9.80;;;3.83;;
11488;SDS011;5801;50.804;12.638;2024-01-15T07:44:02;6.03;;;3.80;;
11488;SDS011;5801;50.804;12.638;2024-01-15T07:46:30;14.20;;;5.00;;
11488;SDS011;5801;50.804;12.638;2024-01-15T07:48:56;8.20;;;4.00;;
11488;SDS011;5801;50.804;12.638;2024-01-15T07:51:23;7.90;;;3.92;;
11488;SDS011;5801;50.804;12.638;2024-01-15T07:53:49;7.35;;;3.25;;
11488;SDS011;5801;50.804;12.638;2024-01-15T07:56:16;10.15;;;5.25;;
11488;SDS011;5801;50.804;12.638;2024-01-15T07:58:42;16.63;;;4.93;;
11488;SDS011;5801;50.804;12.638;2024-01-15T08:01:08;7.88;;;4.03;;
11488;SDS011;5801;50.804;12.638;2024-01-15T08:03:34;11.90;;;5.10;;
11488;SDS011;5801;50.804;12.638;2024-01-15T08:06:00;5.53;;;3.38;;
11488;SDS011;5801;50.804;12.638;2024-01-15T08:08:26;6.20;;;3.42;;
11488;SDS011;5801;50.804;12.638;2024-01-15T08:10:52;5.82;;;3.35;;
11488;SDS011;5801;50.804;12.638;2024-01-15T08:13:18;4.82;;;3.38;;
11488;SDS011;5801;50.804;12.638;2024-01-15T08:15:45;8.90;;;3.58;;
11488;SDS011;5801;50.804;12.638;2024-01-15T08:18:11;7.78;;;4.07;;
11488;SDS011;5801;50.804;12.638;2024-01-15T08:20:37;8.48;;;4.63;;
11488;SDS011;5801;50.804;12.638;2024-01-15T08:23:03;8.45;;;3.88;;
11488;SDS011;5801;50.804;12.638;2024-01-15T08:25:30;10.90;;;3.83;;
11488;SDS011;5801;50.804;12.638;2024-01-15T08:27:56;11.95;;;4.60;;
11488;SDS011;5801;50.804;12.638;2024-01-15T08:30:22;10.10;;;3.90;;
11488;SDS011;5801;50.804;12.638;2024-01-15T08:32:52;10.52;;;4.38;;
11488;SDS011;5801;50.804;12.638;2024-01-15T08:35:18;9.13;;;3.97;;
11488;SDS011;5801;50.804;12.638;2024-01-15T08:37:47;6.40;;;3.72;;
11488;SDS011;5801;50.804;12.638;2024-01-15T08:40:14;6.55;;;3.67;;
11488;SDS011;5801;50.804;12.638;2024-01-15T08:42:41;6.72;;;3.60;;
11488;SDS011;5801;50.804;12.638;2024-01-15T08:45:07;7.43;;;3.28;;
11488;SDS011;5801;50.804;12.638;2024-01-15T08:47:33;14.82;;;4.80;;
11488;SDS011;5801;50.804;12.638;2024-01-15T08:50:00;6.65;;;3.92;;
11488;SDS011;5801;50.804;12.638;2024-01-15T08:52:26;10.07;;;4.32;;
11488;SDS011;5801;50.804;12.638;2024-01-15T08:54:53;8.88;;;5.22;;
11488;SDS011;5801;50.804;12.638;2024-01-15T08:57:21;6.25;;;3.40;;
11488;SDS011;5801;50.804;12.638;2024-01-15T08:59:47;7.10;;;4.18;;
11488;SDS011;5801;50.804;12.638;2024-01-15T09:02:13;7.13;;;3.58;;
11488;SDS011;5801;50.804;12.638;2024-01-15T09:04:39;10.85;;;4.70;;
11488;SDS011;5801;50.804;12.638;2024-01-15T09:07:05;7.45;;;3.55;;
11488;SDS011;5801;50.804;12.638;2024-01-15T09:09:34;15.80;;;4.78;;
11488;SDS011;5801;50.804;12.638;2024-01-15T09:12:01;6.05;;;3.72;;
11488;SDS011;5801;50.804;12.638;2024-01-15T09:14:27;9.95;;;3.15;;
11488;SDS011;5801;50.804;12.638;2024-01-15T09:16:54;8.75;;;4.10;;
11488;SDS011;5801;50.804;12.638;2024-01-15T09:19:21;6.72;;;3.47;;
11488;SDS011;5801;50.804;12.638;2024-01-15T09:21:47;5.50;;;3.58;;
11488;SDS011;5801;50.804;12.638;2024-01-15T09:24:13;13.73;;;3.78;;
11488;SDS011;5801;50.804;12.638;2024-01-15T09:26:39;12.45;;;3.83;;
11488;SDS011;5801;50.804;12.638;2024-01-15T09:29:05;12.23;;;3.67;;
11488;SDS011;5801;50.804;12.638;2024-01-15T09:31:31;5.53;;;3.00;;
11488;SDS011;5801;50.804;12.638;2024-01-15T09:33:56;10.45;;;4.53;;
11488;SDS011;5801;50.804;12.638;2024-01-15T09:36:25;6.50;;;2.85;;
11488;SDS011;5801;50.804;12.638;2024-01-15T09:38:51;6.07;;;3.10;;
11488;SDS011;5801;50.804;12.638;2024-01-15T09:41:17;8.18;;;3.03;;
11488;SDS011;5801;50.804;12.638;2024-01-15T09:43:43;11.30;;;3.10;;
11488;SDS011;5801;50.804;12.638;2024-01-15T09:46:09;7.45;;;4.10;;
11488;SDS011;5801;50.804;12.638;2024-01-15T09:48:35;6.97;;;4.32;;
11488;SDS011;5801;50.804;12.638;2024-01-15T09:51:03;4.82;;;3.22;;
11488;SDS011;5801;50.804;12.638;2024-01-15T09:53:30;5.30;;;2.53;;
11488;SDS011;5801;50.804;12.638;2024-01-15T09:55:57;6.80;;;3.63;;
11488;SDS011;5801;50.804;12.638;2024-01-15T09:58:23;5.47;;;3.13;;
11488;SDS011;5801;50.804;12.638;2024-01-15T10:00:50;6.07;;;2.90;;
11488;SDS011;5801;50.804;12.638;2024-01-15T10:03:17;5.20;;;2.83;;
11488;SDS011;5801;50.804;12.638;2024-01-15T10:05:43;7.10;;;2.60;;
11488;SDS011;5801;50.804;12.638;2024-01-15T10:08:09;6.15;;;3.50;;
11488;SDS011;5801;50.804;12.638;2024-01-15T10:10:36;15.25;;;3.50;;
11488;SDS011;5801;50.804;12.638;2024-01-15T10:13:03;12.25;;;4.45;;
11488;SDS011;5801;50.804;12.638;2024-01-15T10:15:30;7.65;;;3.90;;
11488;SDS011;5801;50.804;12.638;2024-01-15T10:18:01;9.75;;;3.42;;
11488;SDS011;5801;50.804;12.638;2024-01-15T10:20:27;8.13;;;3.10;;
11488;SDS011;5801;50.804;12.638;2024-01-15T10:22:53;8.88;;;3.03;;
11488;SDS011;5801;50.804;12.638;2024-01-15T10:25:19;10.07;;;4.20;;
11488;SDS011;5801;50.804;12.638;2024-01-15T10:27:58;7.75;;;4.07;;
11488;SDS011;5801;50.804;12.638;2024-01-15T10:30:28;10.10;;;4.38;;
11488;SDS011;5801;50.804;12.638;2024-01-15T10:32:57;5.75;;;3.72;;
11488;SDS011;5801;50.804;12.638;2024-01-15T10:35:32;7.95;;;4.03;;
11488;SDS011;5801;50.804;12.638;2024-01-15T10:37:59;4.63;;;2.95;;
11488;SDS011;5801;50.804;12.638;2024-01-15T10:40:26;4.35;;;2.92;;
11488;SDS011;5801;50.804;12.638;2024-01-15T10:42:53;14.55;;;2.67;;
11488;SDS011;5801;50.804;12.638;2024-01-15T10:45:19;5.53;;;3.22;;
11488;SDS011;5801;50.804;12.638;2024-01-15T10:47:45;7.85;;;3.83;;
11488;SDS011;5801;50.804;12.638;2024-01-15T10:50:11;8.85;;;3.45;;
11488;SDS011;5801;50.804;12.638;2024-01-15T10:52:37;6.47;;;3.45;;
11488;SDS011;5801;50.804;12.638;2024-01-15T10:55:05;7.40;;;3.30;;
11488;SDS011;5801;50.804;12.638;2024-01-15T10:57:36;4.55;;;2.63;;
11488;SDS011;5801;50.804;12.638;2024-01-15T11:00:03;6.07;;;3.60;;
11488;SDS011;5801;50.804;12.638;2024-01-15T11:02:31;3.13;;;2.05;;
11488;SDS011;5801;50.804;12.638;2024-01-15T11:05:00;5.45;;;3.28;;
11488;SDS011;5801;50.804;12.638;2024-01-15T11:07:27;7.28;;;3.95;;
11488;SDS011;5801;50.804;12.638;2024-01-15T11:09:54;8.13;;;3.78;;
11488;SDS011;5801;50.804;12.638;2024-01-15T11:12:20;4.63;;;2.55;;
11488;SDS011;5801;50.804;12.638;2024-01-15T11:14:46;7.13;;;4.20;;
11488;SDS011;5801;50.804;12.638;2024-01-15T11:17:13;6.82;;;3.05;;
11488;SDS011;5801;50.804;12.638;2024-01-15T11:22:10;5.50;;;3.83;;
11488;SDS011;5801;50.804;12.638;2024-01-15T11:24:57;4.70;;;3.05;;
11488;SDS011;5801;50.804;12.638;2024-01-15T11:27:40;4.55;;;3.08;;
11488;SDS011;5801;50.804;12.638;2024-01-15T11:30:12;5.60;;;3.30;;
11488;SDS011;5801;50.804;12.638;2024-01-15T11:32:38;4.72;;;3.20;;
11488;SDS011;5801;50.804;12.638;2024-01-15T11:35:08;3.03;;;2.45;;
11488;SDS011;5801;50.804;12.638;2024-01-15T11:40:23;5.60;;;2.83;;
11488;SDS011;5801;50.804;12.638;2024-01-15T11:42:58;2.88;;;2.15;;
11488;SDS011;5801;50.804;12.638;2024-01-15T11:45:23;3.30;;;1.88;;
11488;SDS011;5801;50.804;12.638;2024-01-15T11:48:03;6.53;;;3.00;;
11488;SDS011;5801;50.804;12.638;2024-01-15T11:50:45;2.70;;;2.40;;
11488;SDS011;5801;50.804;12.638;2024-01-15T11:56:02;4.50;;;1.90;;
11488;SDS011;5801;50.804;12.638;2024-01-15T11:58:31;6.05;;;3.17;;
11488;SDS011;5801;50.804;12.638;2024-01-15T12:00:58;2.92;;;2.05;;
11488;SDS011;5801;50.804;12.638;2024-01-15T12:03:24;3.40;;;2.42;;
11488;SDS011;5801;50.804;12.638;2024-01-15T12:05:53;5.03;;;2.88;;
11488;SDS011;5801;50.804;12.638;2024-01-15T12:08:22;4.90;;;2.90;;
11488;SDS011;5801;50.804;12.638;2024-01-15T12:10:49;2.60;;;1.90;;
11488;SDS011;5801;50.804;12.638;2024-01-15T12:13:14;3.95;;;2.60;;
11488;SDS011;5801;50.804;12.638;2024-01-15T12:15:42;4.05;;;2.10;;
11488;SDS011;5801;50.804;12.638;2024-01-15T12:18:11;4.13;;;2.60;;
11488;SDS011;5801;50.804;12.638;2024-01-15T12:20:39;4.28;;;2.63;;
11488;SDS011;5801;50.804;12.638;2024-01-15T12:23:05;6.53;;;3.28;;
11488;SDS011;5801;50.804;12.638;2024-01-15T12:25:32;4.65;;;2.55;;
11488;SDS011;5801;50.804;12.638;2024-01-15T12:27:59;5.25;;;2.72;;
11488;SDS011;5801;50.804;12.638;2024-01-15T12:30:26;4.30;;;2.88;;
11488;SDS011;5801;50.804;12.638;2024-01-15T12:32:52;5.10;;;3.53;;
11488;SDS011;5801;50.804;12.638;2024-01-15T12:35:19;4.97;;;2.72;;
11488;SDS011;5801;50.804;12.638;2024-01-15T12:37:45;7.57;;;2.75;;
11488;SDS011;5801;50.804;12.638;2024-01-15T12:40:12;3.92;;;2.47;;
11488;SDS011;5801;50.804;12.638;2024-01-15T12:42:39;4.72;;;2.88;;
11488;SDS011;5801;50.804;12.638;2024-01-15T12:45:05;6.22;;;2.63;;
11488;SDS011;5801;50.804;12.638;2024-01-15T12:47:33;4.75;;;2.70;;
11488;SDS011;5801;50.804;12.638;2024-01-15T12:49:59;4.68;;;3.10;;
11488;SDS011;5801;50.804;12.638;2024-01-15T12:52:28;5.80;;;2.53;;
11488;SDS011;5801;50.804;12.638;2024-01-15T12:54:54;6.93;;;2.95;;
11488;SDS011;5801;50.804;12.638;2024-01-15T12:57:21;6.60;;;2.65;;
11488;SDS011;5801;50.804;12.638;2024-01-15T12:59:47;4.95;;;2.33;;
11488;SDS011;5801;50.804;12.638;2024-01-15T13:02:15;5.88;;;3.38;;
11488;SDS011;5801;50.804;12.638;2024-01-15T13:04:41;5.40;;;2.38;;
11488;SDS011;5801;50.804;12.638;2024-01-15T13:07:07;6.30;;;2.65;;
11488;SDS011;5801;50.804;12.638;2024-01-15T13:09:34;3.90;;;2.60;;
11488;SDS011;5801;50.804;12.638;2024-01-15T13:12:03;4.50;;;2.63;;
11488;SDS011;5801;50.804;12.638;2024-01-15T13:14:30;5.10;;;2.65;;
11488;SDS011;5801;50.804;12.638;2024-01-15T13:16:56;4.05;;;3.28;;
11488;SDS011;5801;50.804;12.638;2024-01-15T13:19:23;4.60;;;2.20;;
11488;SDS011;5801;50.804;12.638;2024-01-15T13:21:49;5.00;;;2.20;;
11488;SDS011;5801;50.804;12.638;2024-01-15T13:24:16;10.45;;;3.08;;
11488;SDS011;5801;50.804;12.638;2024-01-15T13:26:42;4.30;;;2.00;;
11488;SDS011;5801;50.804;12.638;2024-01-15T13:29:08;3.10;;;2.53;;
11488;SDS011;5801;50.804;12.638;2024-01-15T13:31:34;8.27;;;3.33;;
11488;SDS011;5801;50.804;12.638;2024-01-15T13:34:00;3.67;;;2.10;;
11488;SDS011;5801;50.804;12.638;2024-01-15T13:36:26;6.70;;;3.15;;
11488;SDS011;5801;50.804;12.638;2024-01-15T13:38:53;7.93;;;3.28;;
11488;SDS011;5801;50.804;12.638;2024-01-15T13:41:19;5.82;;;2.90;;
11488;SDS011;5801;50.804;12.638;2024-01-15T13:43:52;5.57;;;3.28;;
11488;SDS011;5801;50.804;12.638;2024-01-15T13:46:19;7.85;;;2.78;;
11488;SDS011;5801;50.804;12.638;2024-01-15T13:48:48;4.07;;;2.95;;
11488;SDS011;5801;50.804;12.638;2024-01-15T13:51:15;3.30;;;2.28;;
11488;SDS011;5801;50.804;12.638;2024-01-15T13:53:41;3.97;;;3.35;;
11488;SDS011;5801;50.804;12.638;2024-01-15T13:56:07;3.47;;;1.95;;
11488;SDS011;5801;50.804;12.638;2024-01-15T13:58:35;5.90;;;2.08;;
11488;SDS011;5801;50.804;12.638;2024-01-15T14:01:02;5.55;;;2.72;;
11488;SDS011;5801;50.804;12.638;2024-01-15T14:03:30;6.53;;;3.20;;
11488;SDS011;5801;50.804;12.638;2024-01-15T14:05:57;5.75;;;2.50;;
11488;SDS011;5801;50.804;12.638;2024-01-15T14:08:23;5.57;;;2.90;;
11488;SDS011;5801;50.804;12.638;2024-01-15T14:10:49;9.43;;;2.58;;
11488;SDS011;5801;50.804;12.638;2024-01-15T14:13:15;6.28;;;3.50;;
11488;SDS011;5801;50.804;12.638;2024-01-15T14:15:41;2.00;;;1.80;;
11488;SDS011;5801;50.804;12.638;2024-01-15T14:18:07;9.02;;;3.50;;
11488;SDS011;5801;50.804;12.638;2024-01-15T14:20:32;8.82;;;3.65;;
11488;SDS011;5801;50.804;12.638;2024-01-15T14:22:58;3.05;;;2.40;;
11488;SDS011;5801;50.804;12.638;2024-01-15T14:25:24;6.68;;;2.95;;
11488;SDS011;5801;50.804;12.638;2024-01-15T14:27:50;5.07;;;2.90;;
11488;SDS011;5801;50.804;12.638;2024-01-15T14:30:16;4.10;;;2.42;;
11488;SDS011;5801;50.804;12.638;2024-01-15T14:32:42;3.92;;;2.80;;
11488;SDS011;5801;50.804;12.638;2024-01-15T14:35:08;9.85;;;3.42;;
11488;SDS011;5801;50.804;12.638;2024-01-15T14:37:36;6.25;;;2.95;;
11488;SDS011;5801;50.804;12.638;2024-01-15T14:40:02;5.93;;;3.03;;
11488;SDS011;5801;50.804;12.638;2024-01-15T14:42:29;4.85;;;2.70;;
11488;SDS011;5801;50.804;12.638;2024-01-15T14:44:56;9.35;;;3.45;;
11488;SDS011;5801;50.804;12.638;2024-01-15T14:47:22;7.97;;;3.70;;